Time;durP1;ratioP1;P1;durP2;ratioP2;P2;SDS_P1;SDS_P2;PMS_P1;PMS_P2;Temp;Humidity;BMP_temperature;BMP_pressure;BME280_temperature;BME280_humidity;BME280_pressure;Samples;Min_cycle;Max_cycle;Signal;HPM_P1;HPM_P2
2022/09/23 00:01:40;;;;;;;6.72;4.22;;;21.30;64.60;;;;;;6174367;28;80442;-48
2022/09/23 00:04:41;;;;;;;8.48;4.65;;;21.40;64.70;;;;;;6173853;28;84247;-47
2022/09/23 00:07:41;;;;;;;10.80;4.65;;;21.30;64.80;;;;;;6180012;28;80352;-48
2022/09/23 00:10:42;;;;;;;6.93;4.38;;;21.30;64.70;;;;;;6163116;28;83666;-49
2022/09/23 00:13:42;;;;;;;9.88;5.55;;;21.30;64.70;;;;;;6172054;28;80502;-49
2022/09/23 00:16:42;;;;;;;9.85;5.15;;;21.40;65.00;;;;;;6179767;28;80941;-48
2022/09/23 00:19:43;;;;;;;8.48;4.82;;;21.30;64.70;;;;;;6175206;28;87547;-49
2022/09/23 00:22:43;;;;;;;9.68;4.70;;;21.30;64.50;;;;;;6175028;28;81799;-48
2022/09/23 00:25:44;;;;;;;8.38;4.93;;;21.30;64.80;;;;;;6174166;28;82724;-53
2022/09/23 00:28:44;;;;;;;10.32;4.75;;;21.30;64.70;;;;;;6174127;28;80256;-52
2022/09/23 00:31:45;;;;;;;9.25;4.90;;;21.30;64.80;;;;;;6161620;28;80270;-51
2022/09/23 00:34:46;;;;;;;8.82;4.88;;;21.30;64.70;;;;;;6156154;28;81230;-50
2022/09/23 00:37:47;;;;;;;11.50;4.93;;;21.30;64.90;;;;;;6165394;28;80579;-54
2022/09/23 00:40:48;;;;;;;7.22;4.63;;;21.30;64.80;;;;;;6163134;28;80652;-52
2022/09/23 00:43:49;;;;;;;10.35;5.80;;;21.30;64.70;;;;;;6163333;28;80510;-49
2022/09/23 00:46:49;;;;;;;11.15;5.47;;;21.30;64.90;;;;;;6162459;28;81097;-50
2022/09/23 00:49:49;;;;;;;10.32;4.65;;;21.30;64.40;;;;;;6155963;28;80459;-52
2022/09/23 00:52:50;;;;;;;9.93;5.65;;;21.30;64.60;;;;;;6152288;28;80511;-49
2022/09/23 00:55:51;;;;;;;11.40;5.47;;;21.30;64.40;;;;;;6179362;28;80831;-53
2022/09/23 00:58:51;;;;;;;8.00;5.38;;;21.30;64.20;;;;;;6176709;28;80381;-53
2022/09/23 01:01:53;;;;;;;8.48;5.80;;;21.30;64.20;;;;;;6173844;28;86969;-56
2022/09/23 01:04:54;;;;;;;9.60;5.65;;;21.30;64.50;;;;;;6174809;28;83468;-57
2022/09/23 01:07:54;;;;;;;9.88;5.90;;;21.30;64.20;;;;;;6159308;28;80885;-57
2022/09/23 01:10:55;;;;;;;9.60;5.55;;;21.30;64.20;;;;;;6151550;28;80290;-57
2022/09/23 01:13:55;;;;;;;9.27;5.65;;;21.30;64.10;;;;;;6166522;28;85240;-58
2022/09/23 01:16:55;;;;;;;13.63;6.65;;;21.30;64.20;;;;;;6161472;28;80103;-56
2022/09/23 01:19:56;;;;;;;7.13;4.82;;;21.30;64.10;;;;;;6152993;28;80830;-57
2022/09/23 01:22:57;;;;;;;9.52;5.65;;;21.30;64.10;;;;;;6151564;28;80534;-56
2022/09/23 01:25:58;;;;;;;13.43;6.65;;;21.30;64.10;;;;;;6156283;28;80517;-56
2022/09/23 01:29:01;;;;;;;7.95;5.13;;;21.30;64.00;;;;;;6153189;28;82081;-56
2022/09/23 01:32:01;;;;;;;10.80;5.53;;;21.30;64.10;;;;;;6163125;28;86020;-56
2022/09/23 01:35:02;;;;;;;12.35;6.15;;;21.30;63.90;;;;;;6163515;28;81557;-56
2022/09/23 01:38:03;;;;;;;10.80;5.80;;;21.30;64.10;;;;;;6153783;28;80548;-55
2022/09/23 01:41:03;;;;;;;10.57;5.80;;;21.30;64.10;;;;;;6149698;28;81979;-57
2022/09/23 01:44:04;;;;;;;10.43;5.57;;;21.30;64.30;;;;;;6164124;28;80401;-56
2022/09/23 01:47:07;;;;;;;11.60;5.80;;;21.30;64.30;;;;;;6163145;28;80541;-58
2022/09/23 01:50:55;;;;;;;11.45;6.25;;;21.30;64.20;;;;;;6151618;28;81090;-56
2022/09/23 01:53:27;;;;;;;11.02;6.38;;;21.30;64.20;;;;;;6159058;28;86867;-57
2022/09/23 01:56:28;;;;;;;9.45;5.72;;;21.30;64.10;;;;;;6165138;28;84437;-55
2022/09/23 01:59:28;;;;;;;10.88;5.90;;;21.30;64.20;;;;;;6161110;28;81829;-58
2022/09/23 02:02:29;;;;;;;10.70;5.30;;;21.30;64.30;;;;;;6165275;28;80871;-57
2022/09/23 02:05:29;;;;;;;11.27;5.93;;;21.30;64.20;;;;;;6165954;28;80322;-57
2022/09/23 02:08:30;;;;;;;14.85;6.15;;;21.30;64.50;;;;;;6164792;28;80670;-57
2022/09/23 02:11:30;;;;;;;12.35;5.97;;;21.30;64.40;;;;;;6167576;28;81737;-57
2022/09/23 02:14:31;;;;;;;10.80;6.05;;;21.40;64.50;;;;;;6172886;28;82245;-57
2022/09/23 02:17:31;;;;;;;14.27;6.38;;;21.30;64.20;;;;;;6173831;28;80638;-56
2022/09/23 02:20:32;;;;;;;10.00;5.70;;;21.40;64.30;;;;;;6155803;28;81476;-56
2022/09/23 02:23:32;;;;;;;10.50;6.20;;;21.30;64.20;;;;;;6152161;28;80435;-58
2022/09/23 02:26:33;;;;;;;11.10;6.05;;;21.30;64.20;;;;;;6149723;28;80341;-57
2022/09/23 02:29:33;;;;;;;12.73;5.78;;;21.30;64.20;;;;;;6157350;28;80136;-55
2022/09/23 02:32:34;;;;;;;11.00;5.72;;;21.30;64.20;;;;;;6156361;28;84518;-57
2022/09/23 02:35:35;;;;;;;12.82;6.45;;;21.30;64.20;;;;;;6156839;28;80393;-56
2022/09/23 02:38:36;;;;;;;10.98;6.13;;;21.30;64.30;;;;;;6150334;28;80657;-56
2022/09/23 02:41:36;;;;;;;11.98;5.95;;;21.30;64.10;;;;;;6159217;28;81859;-55
2022/09/23 02:44:37;;;;;;;13.93;7.07;;;21.30;64.00;;;;;;6170529;28;80755;-56
2022/09/23 02:47:38;;;;;;;10.35;5.88;;;21.30;63.80;;;;;;6168266;28;80431;-56
2022/09/23 02:50:39;;;;;;;12.68;6.45;;;21.30;63.90;;;;;;6163729;28;80262;-55
2022/09/23 02:53:39;;;;;;;11.45;6.25;;;21.30;63.70;;;;;;6152645;28;81165;-55
2022/09/23 02:56:40;;;;;;;10.00;6.22;;;21.30;63.80;;;;;;6159495;28;80512;-54
2022/09/23 02:59:40;;;;;;;9.95;5.93;;;21.30;63.80;;;;;;6160093;28;84108;-55
2022/09/23 03:02:40;;;;;;;10.48;6.25;;;21.20;63.60;;;;;;6151908;28;85733;-55
2022/09/23 03:05:41;;;;;;;11.63;6.07;;;21.30;63.80;;;;;;6159069;28;81003;-55
2022/09/23 03:08:42;;;;;;;11.20;5.15;;;21.30;63.50;;;;;;6166366;28;82712;-54
2022/09/23 03:11:42;;;;;;;8.18;5.07;;;21.30;63.60;;;;;;6167686;28;80488;-57
2022/09/23 03:14:43;;;;;;;7.95;5.10;;;21.30;64.20;;;;;;6170592;28;80980;-57
2022/09/23 03:17:43;;;;;;;13.45;5.53;;;21.30;62.80;;;;;;6160882;28;80412;-56
2022/09/23 03:20:44;;;;;;;8.27;5.07;;;21.20;62.60;;;;;;6152172;28;80462;-55
2022/09/23 03:23:44;;;;;;;10.18;5.88;;;21.20;62.50;;;;;;6151479;28;80652;-55
2022/09/23 03:26:45;;;;;;;11.55;5.63;;;21.20;62.40;;;;;;6160358;28;80301;-55
2022/09/23 03:29:46;;;;;;;11.82;6.07;;;21.30;62.30;;;;;;6169328;28;81596;-49
2022/09/23 03:32:46;;;;;;;11.02;5.60;;;21.40;62.30;;;;;;6163293;28;80403;-48
2022/09/23 03:39:06;;;;;;;11.18;5.57;;;21.50;61.90;;;;;;6146116;28;80922;-47
2022/09/23 03:42:06;;;;;;;7.47;5.07;;;21.50;61.70;;;;;;6148647;28;80917;-48
2022/09/23 03:45:08;;;;;;;11.48;5.85;;;21.60;61.60;;;;;;6162348;28;80565;-46
2022/09/23 03:48:08;;;;;;;11.98;6.53;;;21.60;61.50;;;;;;6161643;28;80151;-54
2022/09/23 03:51:09;;;;;;;10.30;5.45;;;21.60;61.40;;;;;;6161911;28;80480;-54
2022/09/23 03:54:09;;;;;;;12.63;5.72;;;21.60;61.20;;;;;;6163164;28;80915;-53
2022/09/23 03:57:10;;;;;;;6.57;4.82;;;21.70;61.20;;;;;;6145118;28;83540;-56
2022/09/23 04:00:10;;;;;;;10.32;5.35;;;21.70;61.20;;;;;;6162816;28;82349;-53
2022/09/23 04:03:14;;;;;;;9.77;5.22;;;21.70;61.10;;;;;;6174322;28;80528;-50
2022/09/23 04:06:14;;;;;;;11.90;6.13;;;21.70;61.10;;;;;;6170149;28;86475;-51
2022/09/23 04:09:15;;;;;;;9.50;5.40;;;21.70;61.00;;;;;;6174223;28;81223;-49
2022/09/23 04:12:16;;;;;;;11.02;5.80;;;21.70;60.80;;;;;;6169605;28;86553;-47
2022/09/23 04:15:16;;;;;;;7.90;5.32;;;21.70;60.80;;;;;;6173199;28;80898;-47
2022/09/23 04:18:17;;;;;;;11.43;6.13;;;21.70;60.80;;;;;;6159575;28;81563;-47
2022/09/23 04:21:18;;;;;;;10.77;6.07;;;21.70;60.70;;;;;;6178257;28;80592;-48
2022/09/23 04:24:18;;;;;;;9.27;6.22;;;21.70;60.70;;;;;;6165580;28;80370;-50
2022/09/23 04:27:19;;;;;;;8.90;5.93;;;21.70;61.00;;;;;;6164522;28;80870;-46
2022/09/23 04:30:19;;;;;;;8.45;5.75;;;21.70;61.00;;;;;;6173584;28;80957;-61
2022/09/23 04:33:20;;;;;;;12.85;6.35;;;21.70;60.80;;;;;;6178348;28;82672;-48
2022/09/23 04:36:20;;;;;;;9.38;6.43;;;21.70;61.40;;;;;;6173751;28;81317;-57
2022/09/23 04:39:21;;;;;;;11.30;6.72;;;21.70;61.40;;;;;;6175495;28;82607;-50
2022/09/23 04:42:21;;;;;;;11.80;6.25;;;21.70;61.40;;;;;;6170634;28;80336;-48
2022/09/23 04:45:22;;;;;;;13.90;6.15;;;21.70;61.50;;;;;;6163093;28;83505;-57
2022/09/23 04:48:22;;;;;;;11.65;6.50;;;21.70;61.30;;;;;;6168145;28;80745;-49
2022/09/23 04:51:24;;;;;;;14.23;6.45;;;21.70;61.10;;;;;;6170437;28;83500;-48
2022/09/23 04:54:24;;;;;;;15.43;6.80;;;21.70;61.00;;;;;;6172468;28;82865;-53
2022/09/23 04:57:25;;;;;;;12.45;7.28;;;21.70;60.90;;;;;;6172733;28;80681;-50
2022/09/23 05:00:27;;;;;;;10.55;6.25;;;21.70;60.60;;;;;;6176563;28;80784;-56
2022/09/23 05:03:29;;;;;;;13.23;7.22;;;21.80;60.80;;;;;;6172699;28;80278;-51
2022/09/23 05:06:30;;;;;;;12.70;7.20;;;21.80;61.30;;;;;;6175648;28;85676;-49
2022/09/23 05:09:30;;;;;;;18.67;7.35;;;21.80;61.70;;;;;;6171458;28;81933;-52
2022/09/23 05:12:31;;;;;;;11.23;6.30;;;21.70;61.80;;;;;;6178229;28;81007;-61
2022/09/23 05:15:31;;;;;;;12.25;7.18;;;21.80;62.00;;;;;;6161430;28;80568;-52
2022/09/23 05:18:32;;;;;;;12.98;7.25;;;21.80;62.10;;;;;;6166825;28;80837;-59
2022/09/23 05:21:32;;;;;;;15.00;8.23;;;21.80;61.80;;;;;;6151291;28;80591;-64
2022/09/23 05:24:33;;;;;;;13.13;7.28;;;21.80;61.90;;;;;;6170059;28;82327;-62
2022/09/23 05:27:33;;;;;;;13.68;7.97;;;21.80;61.90;;;;;;6150430;28;80426;-51
2022/09/23 05:30:33;;;;;;;14.02;7.38;;;21.80;61.70;;;;;;6161415;28;87294;-50
2022/09/23 05:33:34;;;;;;;14.73;7.72;;;21.80;62.10;;;;;;6155479;28;82396;-53
2022/09/23 05:36:34;;;;;;;12.02;7.32;;;21.80;61.90;;;;;;6154525;28;80546;-49
2022/09/23 05:39:35;;;;;;;12.70;7.38;;;21.80;62.20;;;;;;6151500;28;83209;-55
2022/09/23 05:42:36;;;;;;;14.07;7.45;;;21.80;62.30;;;;;;6153302;28;82186;-54
2022/09/23 05:45:36;;;;;;;14.80;7.60;;;21.80;62.30;;;;;;6158063;28;80900;-59
2022/09/23 05:48:37;;;;;;;16.55;7.32;;;21.80;62.50;;;;;;6165287;28;86580;-59
2022/09/23 05:51:37;;;;;;;15.20;7.50;;;21.80;62.30;;;;;;6170270;28;80950;-58
2022/09/23 05:54:38;;;;;;;13.38;7.78;;;21.80;62.40;;;;;;6165897;28;80938;-58
2022/09/23 05:57:39;;;;;;;13.27;7.47;;;21.90;62.40;;;;;;6164552;28;80533;-61
2022/09/23 06:00:40;;;;;;;14.23;8.52;;;21.80;62.20;;;;;;6162885;28;83702;-61
2022/09/23 06:03:40;;;;;;;15.20;8.05;;;21.90;62.10;;;;;;6163624;28;84209;-63
2022/09/23 06:06:41;;;;;;;17.33;7.50;;;21.90;62.10;;;;;;6162045;28;80428;-60
2022/09/23 06:09:41;;;;;;;14.43;8.75;;;21.90;61.90;;;;;;6156209;28;80499;-59
2022/09/23 06:12:43;;;;;;;15.50;8.27;;;21.90;62.00;;;;;;6169094;28;80943;-49
2022/09/23 06:15:44;;;;;;;16.30;7.68;;;21.90;61.90;;;;;;6165236;28;80418;-57
2022/09/23 06:18:44;;;;;;;10.95;7.15;;;21.90;62.00;;;;;;6153387;28;80513;-57
2022/09/23 06:21:45;;;;;;;18.70;8.30;;;21.90;62.10;;;;;;6173200;28;80815;-54
2022/09/23 06:24:45;;;;;;;12.68;7.50;;;21.90;61.90;;;;;;6164097;28;80853;-56
2022/09/23 06:27:47;;;;;;;13.35;7.55;;;21.90;62.00;;;;;;6167155;28;86448;-58
2022/09/23 06:30:48;;;;;;;16.17;8.18;;;21.90;62.20;;;;;;6160097;28;81008;-66
2022/09/23 06:33:49;;;;;;;14.80;7.68;;;21.90;61.90;;;;;;6153168;28;80344;-55
2022/09/23 06:36:50;;;;;;;14.82;8.10;;;21.90;61.70;;;;;;6159319;28;80359;-56
2022/09/23 06:39:53;;;;;;;15.55;8.30;;;21.90;62.00;;;;;;6165345;28;80393;-56
2022/09/23 06:42:54;;;;;;;17.10;8.32;;;21.90;62.40;;;;;;6158548;28;80423;-66
2022/09/23 06:45:54;;;;;;;16.83;8.40;;;21.90;62.00;;;;;;6164024;28;80998;-65
2022/09/23 06:48:55;;;;;;;16.95;8.07;;;21.90;62.10;;;;;;6167381;28;80483;-56
2022/09/23 06:51:55;;;;;;;12.68;7.40;;;22.00;62.20;;;;;;6175400;28;81323;-64
2022/09/23 06:54:56;;;;;;;13.70;7.70;;;22.10;62.40;;;;;;6161899;28;80937;-64
2022/09/23 06:57:56;;;;;;;17.52;8.70;;;22.10;62.30;;;;;;6172984;28;80509;-67
2022/09/23 07:00:57;;;;;;;17.48;7.57;;;22.00;62.30;;;;;;6173380;28;80397;-63
2022/09/23 07:03:58;;;;;;;11.63;7.90;;;22.10;62.50;;;;;;6151499;28;81730;-63
2022/09/23 07:06:59;;;;;;;13.40;7.63;;;22.10;62.50;;;;;;6146244;28;81952;-65
2022/09/23 07:09:59;;;;;;;14.50;7.85;;;22.10;62.40;;;;;;6157991;28;84944;-64
2022/09/23 07:12:59;;;;;;;16.38;8.27;;;22.10;62.20;;;;;;6170109;28;80301;-71
2022/09/23 07:16:00;;;;;;;68.85;29.65;;;22.10;62.30;;;;;;6162221;28;81757;-65
2022/09/23 07:19:01;;;;;;;103.65;46.03;;;22.10;62.10;;;;;;6152312;28;86584;-63
2022/09/23 07:22:01;;;;;;;132.23;53.80;;;22.10;61.80;;;;;;6160524;28;83169;-61
2022/09/23 07:25:02;;;;;;;199.10;85.35;;;22.10;61.90;;;;;;6158772;28;83939;-65
2022/09/23 07:28:02;;;;;;;205.95;86.25;;;22.20;61.70;;;;;;6173675;28;83544;-61
2022/09/23 07:31:03;;;;;;;181.10;76.50;;;22.20;61.70;;;;;;6165283;28;82897;-65
2022/09/23 07:34:03;;;;;;;137.57;60.50;;;22.20;61.50;;;;;;6161124;28;82989;-62
2022/09/23 07:37:04;;;;;;;117.40;52.47;;;22.30;60.30;;;;;;6165898;28;83693;-63
2022/09/23 07:40:04;;;;;;;91.47;43.78;;;22.40;59.60;;;;;;6134277;28;83571;-63
2022/09/23 07:43:05;;;;;;;92.10;41.78;;;22.40;59.30;;;;;;6172844;28;82844;-59
2022/09/23 07:46:07;;;;;;;81.38;39.60;;;22.40;59.20;;;;;;6171707;28;82866;-57
2022/09/23 07:49:07;;;;;;;72.00;32.17;;;22.40;58.80;;;;;;6170192;28;85769;-48
2022/09/23 07:52:07;;;;;;;49.38;27.08;;;22.40;58.20;;;;;;6171694;28;83026;-47
2022/09/23 07:55:08;;;;;;;52.55;23.55;;;22.40;57.90;;;;;;6170683;28;83630;-48
2022/09/23 07:58:08;;;;;;;39.08;19.63;;;22.40;57.30;;;;;;6161563;28;84634;-48
2022/09/23 08:01:09;;;;;;;43.15;20.65;;;22.40;57.00;;;;;;6170292;28;83444;-48
2022/09/23 08:04:09;;;;;;;35.92;19.35;;;22.40;57.10;;;;;;6139632;28;83428;-48
2022/09/23 08:07:10;;;;;;;35.28;18.02;;;22.40;56.50;;;;;;6151856;28;83053;-47
2022/09/23 08:10:10;;;;;;;32.88;16.73;;;22.40;56.20;;;;;;6148152;28;83557;-52
2022/09/23 08:13:11;;;;;;;33.60;14.95;;;22.40;56.50;;;;;;6146143;28;86279;-50
2022/09/23 08:16:11;;;;;;;28.25;14.32;;;22.40;55.60;;;;;;6161067;28;83413;-51
2022/09/23 08:19:12;;;;;;;32.00;13.95;;;22.40;55.40;;;;;;6161784;28;83890;-52
2022/09/23 08:22:12;;;;;;;30.02;12.07;;;22.40;55.30;;;;;;6145585;28;87558;-50
2022/09/23 08:25:13;;;;;;;20.75;11.77;;;22.50;55.20;;;;;;6149975;28;83567;-51
2022/09/23 08:28:15;;;;;;;21.55;11.98;;;22.50;55.10;;;;;;6164591;28;83118;-49
2022/09/23 08:31:16;;;;;;;19.63;11.60;;;22.50;55.10;;;;;;6160923;28;87799;-47
2022/09/23 08:34:16;;;;;;;21.45;11.38;;;22.50;55.10;;;;;;6164074;28;86880;-50
2022/09/23 08:37:16;;;;;;;17.95;9.27;;;22.50;55.40;;;;;;6170654;28;83310;-48
2022/09/23 08:40:17;;;;;;;20.35;10.18;;;22.50;55.20;;;;;;6176471;28;86078;-49
2022/09/23 08:43:18;;;;;;;21.33;10.48;;;22.50;55.10;;;;;;6169000;28;83277;-56
2022/09/23 08:46:18;;;;;;;18.02;10.30;;;22.50;54.90;;;;;;6170636;28;82895;-56
2022/09/23 08:49:19;;;;;;;21.83;9.93;;;22.50;55.00;;;;;;6165113;28;85242;-57
2022/09/23 08:52:19;;;;;;;15.30;8.38;;;22.60;54.80;;;;;;6167846;28;83589;-57
2022/09/23 08:55:20;;;;;;;12.65;8.50;;;22.60;54.50;;;;;;6169577;28;84561;-58
2022/09/23 08:58:20;;;;;;;13.30;8.63;;;22.60;54.50;;;;;;6171428;28;80368;-56
2022/09/23 09:01:21;;;;;;;15.68;8.55;;;22.70;54.30;;;;;;6171921;28;80498;-49
2022/09/23 09:04:21;;;;;;;23.05;8.43;;;22.70;54.60;;;;;;6169400;28;80827;-48
2022/09/23 09:07:22;;;;;;;14.52;8.07;;;22.60;54.40;;;;;;6148269;28;84652;-51
2022/09/23 09:10:23;;;;;;;17.13;7.68;;;22.60;54.50;;;;;;6161124;28;80634;-50
2022/09/23 09:13:23;;;;;;;16.50;8.07;;;22.60;54.30;;;;;;6171084;28;80967;-48
2022/09/23 09:16:24;;;;;;;11.65;6.55;;;22.70;54.00;;;;;;6161022;28;80779;-47
2022/09/23 09:19:25;;;;;;;11.60;6.53;;;22.80;54.70;;;;;;6163331;28;80317;-51
2022/09/23 09:22:25;;;;;;;15.00;7.78;;;22.70;53.80;;;;;;6152431;28;81278;-48
2022/09/23 09:25:26;;;;;;;13.57;7.18;;;22.70;54.10;;;;;;6151542;28;81604;-48
2022/09/23 09:28:31;;;;;;;10.68;6.57;;;22.70;54.00;;;;;;6154527;28;80314;-47
2022/09/23 09:31:31;;;;;;;12.60;6.43;;;22.70;54.00;;;;;;6166151;28;80214;-47
2022/09/23 09:34:32;;;;;;;13.20;6.78;;;22.70;53.80;;;;;;6160656;28;83951;-46
2022/09/23 09:37:32;;;;;;;10.02;6.22;;;22.80;53.60;;;;;;6163235;28;81335;-63
2022/09/23 09:40:33;;;;;;;11.48;6.35;;;22.80;53.50;;;;;;6153001;28;82013;-65
2022/09/23 09:43:34;;;;;;;11.77;6.00;;;22.80;53.50;;;;;;6154138;28;81167;-65
2022/09/23 09:46:34;;;;;;;12.23;5.82;;;22.80;53.00;;;;;;6141493;28;81088;-63
2022/09/23 09:49:35;;;;;;;8.48;5.63;;;22.70;52.90;;;;;;6152811;28;83478;-64
2022/09/23 09:52:36;;;;;;;9.07;5.47;;;22.70;52.10;;;;;;6145322;28;83497;-62
2022/09/23 09:55:36;;;;;;;8.35;5.00;;;22.70;52.50;;;;;;6159166;28;80877;-66
2022/09/23 09:58:39;;;;;;;8.70;4.82;;;22.70;52.30;;;;;;6160952;28;80350;-66
2022/09/23 10:01:40;;;;;;;7.32;4.30;;;22.70;52.30;;;;;;6148377;28;81688;-64
2022/09/23 10:04:41;;;;;;;10.27;5.18;;;22.60;52.80;;;;;;6157316;28;81035;-64
2022/09/23 10:07:41;;;;;;;8.23;5.20;;;22.70;53.10;;;;;;6148111;28;80993;-61
2022/09/23 10:10:41;;;;;;;9.52;5.22;;;22.70;53.00;;;;;;6149572;28;81318;-62
2022/09/23 10:13:43;;;;;;;7.22;5.35;;;22.70;53.40;;;;;;6141832;28;81328;-59
2022/09/23 10:16:43;;;;;;;8.85;5.35;;;22.70;53.70;;;;;;6145470;28;81110;-61
2022/09/23 10:19:44;;;;;;;8.43;5.03;;;22.70;54.30;;;;;;6144513;28;81168;-61
2022/09/23 10:22:45;;;;;;;8.65;4.28;;;22.60;55.40;;;;;;6151191;28;81014;-60
2022/09/23 10:25:45;;;;;;;9.90;4.75;;;22.60;55.50;;;;;;6159327;28;80352;-60
2022/09/23 10:28:46;;;;;;;7.68;4.18;;;22.60;54.80;;;;;;6142735;28;81754;-59
2022/09/23 10:31:46;;;;;;;6.53;4.35;;;22.60;54.70;;;;;;6164600;28;86155;-60
2022/09/23 10:34:47;;;;;;;8.95;4.40;;;22.50;54.20;;;;;;6140124;28;84540;-60
2022/09/23 10:37:48;;;;;;;6.20;4.13;;;22.50;53.90;;;;;;6165918;28;81229;-61
2022/09/23 10:47:27;;;;;;;9.90;3.90;;;22.40;56.10;;;;;;6163922;28;80299;-58
2022/09/23 10:50:28;;;;;;;10.68;3.72;;;22.40;55.30;;;;;;6163212;28;80874;-58
2022/09/23 10:53:28;;;;;;;6.18;3.17;;;22.40;55.00;;;;;;6167290;28;80437;-59
2022/09/23 10:56:29;;;;;;;7.18;3.67;;;22.30;54.70;;;;;;6178377;28;80951;-58
2022/09/23 10:59:30;;;;;;;5.93;3.85;;;22.30;54.40;;;;;;6164699;28;80383;-58
2022/09/23 11:02:30;;;;;;;8.30;3.65;;;22.30;54.20;;;;;;6174173;28;81434;-58
2022/09/23 11:05:31;;;;;;;9.63;4.20;;;22.30;54.40;;;;;;6155637;28;81235;-58
2022/09/23 11:08:32;;;;;;;10.93;4.35;;;22.30;54.00;;;;;;6189571;28;84358;-60
2022/09/23 11:11:33;;;;;;;14.68;4.25;;;22.30;53.60;;;;;;6179149;28;80492;-59
2022/09/23 11:14:37;;;;;;;6.68;3.97;;;22.40;53.60;;;;;;6178433;28;80676;-59
2022/09/23 11:17:38;;;;;;;6.88;3.95;;;22.50;53.00;;;;;;6165959;28;82642;-58
2022/09/23 11:20:38;;;;;;;6.53;3.85;;;22.50;52.90;;;;;;6148907;28;83748;-59
2022/09/23 11:23:39;;;;;;;9.82;4.82;;;22.60;52.80;;;;;;6168042;28;80398;-58
2022/09/23 11:26:40;;;;;;;7.95;3.95;;;22.60;52.70;;;;;;6176387;28;82222;-63
2022/09/23 11:29:41;;;;;;;6.97;4.10;;;22.70;52.80;;;;;;6170518;28;85483;-59
2022/09/23 11:32:42;;;;;;;9.13;4.15;;;22.70;51.90;;;;;;6161997;28;87988;-59
2022/09/23 11:35:43;;;;;;;5.95;3.90;;;22.70;51.50;;;;;;6149733;28;80835;-59
2022/09/23 11:38:44;;;;;;;4.93;3.63;;;22.70;51.80;;;;;;6160546;28;82844;-59
2022/09/23 11:41:44;;;;;;;7.45;3.70;;;22.80;50.80;;;;;;6177694;28;83096;-66
2022/09/23 11:44:45;;;;;;;6.97;3.72;;;22.80;51.00;;;;;;6163953;28;81024;-61
2022/09/23 11:47:47;;;;;;;5.22;3.38;;;22.80;49.50;;;;;;6170112;28;82163;-61
2022/09/23 11:50:47;;;;;;;9.02;3.88;;;22.70;48.50;;;;;;6175848;28;81502;-61
2022/09/23 11:53:47;;;;;;;5.65;3.15;;;22.60;48.00;;;;;;6179194;28;80747;-60
2022/09/23 11:56:48;;;;;;;4.80;2.85;;;22.50;48.00;;;;;;6155047;28;80469;-63
2022/09/23 11:59:50;;;;;;;7.22;2.67;;;22.60;48.70;;;;;;6157331;28;80905;-60
2022/09/23 12:02:50;;;;;;;3.72;3.08;;;22.60;48.80;;;;;;6153986;28;81795;-60
2022/09/23 12:05:51;;;;;;;3.95;3.13;;;22.70;48.50;;;;;;6157902;28;80772;-62
2022/09/23 12:08:51;;;;;;;7.55;2.90;;;22.70;48.50;;;;;;6153248;28;80374;-62
2022/09/23 12:11:52;;;;;;;8.60;2.75;;;22.80;48.50;;;;;;6151577;28;80569;-65
2022/09/23 12:14:52;;;;;;;3.75;2.60;;;22.80;49.10;;;;;;6156693;28;80419;-62
2022/09/23 12:17:53;;;;;;;3.88;2.75;;;22.90;48.40;;;;;;6149107;28;80712;-62
2022/09/23 12:20:54;;;;;;;6.13;2.40;;;22.80;47.60;;;;;;6152410;28;86601;-65
2022/09/23 12:23:54;;;;;;;4.72;2.42;;;22.70;47.50;;;;;;6156637;28;82779;-60
2022/09/23 12:26:55;;;;;;;5.20;3.10;;;22.80;47.40;;;;;;6149620;28;80638;-62
2022/09/23 12:29:56;;;;;;;3.33;2.63;;;22.80;47.20;;;;;;6158240;28;84607;-60
2022/09/23 12:32:56;;;;;;;2.58;2.33;;;22.90;47.80;;;;;;6150969;28;80838;-59
2022/09/23 12:35:57;;;;;;;5.40;2.47;;;22.90;48.20;;;;;;6150271;28;82556;-59
2022/09/23 12:38:58;;;;;;;5.35;2.65;;;22.80;48.40;;;;;;6157872;28;83217;-60
2022/09/23 12:41:58;;;;;;;5.00;2.25;;;22.80;48.90;;;;;;6138864;28;80748;-61
2022/09/23 12:44:59;;;;;;;4.00;2.22;;;22.80;48.90;;;;;;6169464;28;86764;-60
2022/09/23 12:48:01;;;;;;;4.38;2.60;;;22.80;49.00;;;;;;6167435;28;81641;-60
2022/09/23 12:51:02;;;;;;;3.20;2.13;;;22.80;48.10;;;;;;6162403;28;83948;-59
2022/09/23 12:54:02;;;;;;;3.72;2.00;;;22.80;48.20;;;;;;6155101;28;80533;-61
2022/09/23 12:57:03;;;;;;;2.97;2.00;;;22.80;47.60;;;;;;6167174;28;80374;-60
2022/09/23 13:00:03;;;;;;;2.83;2.00;;;22.80;47.80;;;;;;6173444;28;80460;-59
2022/09/23 13:06:39;;;;;;;2.05;1.73;;;22.80;46.70;;;;;;6159595;28;85598;-62
2022/09/23 13:09:39;;;;;;;2.42;2.00;;;22.80;46.80;;;;;;6161436;28;84239;-60
2022/09/23 13:12:39;;;;;;;4.78;2.20;;;22.80;47.20;;;;;;6130255;28;82338;-61
2022/09/23 13:15:40;;;;;;;4.70;2.10;;;22.80;46.80;;;;;;6151709;28;82030;-60
2022/09/23 13:18:40;;;;;;;2.90;1.85;;;22.90;47.20;;;;;;6150101;28;80663;-51
2022/09/23 13:21:41;;;;;;;4.38;2.28;;;22.90;47.00;;;;;;6151686;28;81795;-47
2022/09/23 13:24:41;;;;;;;3.78;1.88;;;22.90;47.20;;;;;;6146584;28;81098;-48
2022/09/23 13:27:42;;;;;;;4.40;2.03;;;22.90;46.80;;;;;;6136608;28;81068;-48
2022/09/23 13:30:42;;;;;;;2.22;1.92;;;23.00;47.10;;;;;;6143937;28;81084;-49
2022/09/23 13:33:43;;;;;;;8.10;2.15;;;23.00;46.80;;;;;;6160026;28;83060;-50
2022/09/23 13:36:44;;;;;;;2.58;1.70;;;23.00;46.60;;;;;;6136064;28;80327;-48
2022/09/23 13:39:44;;;;;;;3.47;1.65;;;22.90;46.10;;;;;;6148080;28;80496;-51
2022/09/23 13:42:45;;;;;;;4.88;1.70;;;23.00;45.20;;;;;;6138415;28;82203;-52
2022/09/23 13:45:46;;;;;;;1.90;1.45;;;22.90;45.40;;;;;;6133851;28;80537;-47
2022/09/23 13:48:46;;;;;;;3.70;1.95;;;23.00;45.50;;;;;;6122993;28;83327;-48
2022/09/23 13:51:47;;;;;;;1.90;1.40;;;23.00;45.40;;;;;;6133365;28;80791;-48
2022/09/23 13:54:48;;;;;;;2.33;1.67;;;23.00;45.40;;;;;;6126300;28;80420;-47
2022/09/23 13:57:48;;;;;;;1.52;1.42;;;23.00;45.70;;;;;;6130097;28;82101;-52
2022/09/23 14:00:49;;;;;;;4.63;1.85;;;22.90;45.10;;;;;;6116448;28;81070;-51
2022/09/23 14:03:50;;;;;;;7.88;2.28;;;22.90;45.60;;;;;;6126733;28;81483;-48
2022/09/23 14:06:50;;;;;;;7.78;1.95;;;22.90;45.50;;;;;;6132996;28;83672;-47
2022/09/23 14:09:51;;;;;;;4.57;1.88;;;22.90;45.50;;;;;;6128804;28;80678;-52
2022/09/23 14:12:51;;;;;;;3.25;1.70;;;22.90;45.80;;;;;;6123720;28;81092;-62
2022/09/23 14:15:52;;;;;;;3.30;1.75;;;22.90;45.80;;;;;;6132157;28;80878;-65
2022/09/23 14:18:52;;;;;;;5.28;2.00;;;22.90;46.40;;;;;;6126943;28;81647;-63
2022/09/23 14:21:53;;;;;;;2.30;1.85;;;22.90;46.40;;;;;;6112644;28;82537;-62
2022/09/23 14:24:53;;;;;;;2.55;1.75;;;23.00;46.10;;;;;;6128123;28;80829;-63
2022/09/23 14:27:54;;;;;;;3.47;1.73;;;22.90;46.40;;;;;;6133359;28;80606;-62
2022/09/23 14:30:56;;;;;;;4.47;2.40;;;23.00;46.50;;;;;;6131705;28;80824;-65
2022/09/23 14:33:56;;;;;;;2.85;1.75;;;22.90;46.80;;;;;;6143320;28;80666;-65
2022/09/23 14:40:16;;;;;;;6.78;2.35;;;22.90;46.70;;;;;;6131497;28;85137;-65
2022/09/23 14:43:16;;;;;;;2.95;2.00;;;22.90;46.60;;;;;;6142726;28;81068;-62
2022/09/23 14:46:17;;;;;;;3.30;2.38;;;22.80;46.70;;;;;;6133453;28;80451;-64
2022/09/23 14:49:17;;;;;;;11.45;2.20;;;22.80;47.00;;;;;;6149201;28;81427;-65
2022/09/23 14:52:18;;;;;;;5.13;2.85;;;22.70;47.00;;;;;;6153207;28;80738;-64
2022/09/23 14:55:18;;;;;;;3.72;2.38;;;22.80;47.50;;;;;;6159827;28;80601;-62
2022/09/23 14:58:19;;;;;;;7.78;2.80;;;22.80;47.50;;;;;;6126456;28;83280;-63
2022/09/23 15:01:20;;;;;;;6.35;2.63;;;22.80;47.30;;;;;;6143698;28;82476;-65
2022/09/23 15:04:20;;;;;;;3.10;2.33;;;22.80;47.30;;;;;;6134760;28;81748;-65
2022/09/23 15:07:22;;;;;;;5.43;2.53;;;22.80;47.90;;;;;;6132358;28;80344;-62
2022/09/23 15:10:23;;;;;;;8.57;2.65;;;22.80;48.40;;;;;;6132649;28;80467;-61
2022/09/23 15:13:23;;;;;;;7.50;2.42;;;22.80;48.40;;;;;;6131907;28;80736;-62
2022/09/23 15:16:24;;;;;;;8.45;2.33;;;22.80;48.20;;;;;;6130231;28;85811;-64
2022/09/23 15:19:24;;;;;;;5.30;2.83;;;22.80;48.20;;;;;;6125540;28;84328;-64
2022/09/23 15:22:25;;;;;;;4.90;2.25;;;22.80;47.60;;;;;;6127016;28;80629;-65
2022/09/23 15:25:27;;;;;;;5.22;1.92;;;22.70;47.80;;;;;;6123267;28;81088;-62
2022/09/23 15:28:27;;;;;;;3.70;2.00;;;22.80;48.00;;;;;;6117967;28;85197;-67
2022/09/23 15:31:28;;;;;;;6.38;2.15;;;22.80;48.00;;;;;;6110973;28;80881;-66
2022/09/23 15:34:29;;;;;;;3.42;2.10;;;22.80;47.60;;;;;;6118453;28;81394;-63
2022/09/23 15:37:30;;;;;;;6.38;2.45;;;22.80;47.70;;;;;;6140354;28;83748;-65
2022/09/23 15:40:31;;;;;;;4.28;2.47;;;22.80;47.90;;;;;;6150202;28;81404;-67
2022/09/23 15:43:31;;;;;;;4.47;2.08;;;22.70;47.90;;;;;;6170814;28;80635;-66
2022/09/23 15:46:32;;;;;;;7.25;2.42;;;22.70;47.60;;;;;;6154425;28;82648;-67
2022/09/23 15:49:33;;;;;;;20.65;2.63;;;22.60;47.20;;;;;;6146026;28;80536;-69